sensor_id;sensor_type;location;lat;lon;timestamp;pressure;altitude;pressure_sealevel;temperature;humidity
23677;BME280;31493;49.058;12.190;2023-05-22T00:01:47;95771.31;;;16.23;79.18
23677;BME280;31493;49.058;12.190;2023-05-22T00:04:17;95776.00;;;16.20;79.70
23677;BME280;31493;49.058;12.190;2023-05-22T00:06:46;95773.16;;;16.13;80.10
23677;BME280;31493;49.058;12.190;2023-05-22T00:09:13;95782.38;;;16.07;80.73
23677;BME280;31493;49.058;12.190;2023-05-22T00:11:41;95779.25;;;16.04;80.72
23677;BME280;31493;49.058;12.190;2023-05-22T00:14:08;95772.50;;;16.11;80.69
23677;BME280;31493;49.058;12.190;2023-05-22T00:16:35;95774.91;;;15.95;81.44
23677;BME280;31493;49.058;12.190;2023-05-22T00:19:02;95780.69;;;15.89;81.84
23677;BME280;31493;49.058;12.190;2023-05-22T00:21:32;95780.00;;;15.96;81.85
23677;BME280;31493;49.058;12.190;2023-05-22T00:24:02;95766.53;;;15.91;82.29
23677;BME280;31493;49.058;12.190;2023-05-22T00:26:29;95767.00;;;15.77;83.21
23677;BME280;31493;49.058;12.190;2023-05-22T00:28:56;95771.94;;;15.80;83.08
23677;BME280;31493;49.058;12.190;2023-05-22T00:31:24;95769.34;;;15.70;83.36
23677;BME280;31493;49.058;12.190;2023-05-22T00:33:51;95764.28;;;15.69;83.56
23677;BME280;31493;49.058;12.190;2023-05-22T00:36:18;95771.53;;;15.75;82.97
23677;BME280;31493;49.058;12.190;2023-05-22T00:38:47;95765.91;;;15.79;82.76
23677;BME280;31493;49.058;12.190;2023-05-22T00:41:14;95773.81;;;15.88;82.23
23677;BME280;31493;49.058;12.190;2023-05-22T00:43:41;95770.97;;;15.81;82.08
23677;BME280;31493;49.058;12.190;2023-05-22T00:46:10;95766.66;;;15.90;81.59
23677;BME280;31493;49.058;12.190;2023-05-22T00:48:37;95763.72;;;15.75;82.16
23677;BME280;31493;49.058;12.190;2023-05-22T00:51:05;95760.44;;;15.73;82.23
23677;BME280;31493;49.058;12.190;2023-05-22T00:53:32;95758.66;;;15.73;81.97
23677;BME280;31493;49.058;12.190;2023-05-22T00:56:01;95765.50;;;15.74;81.88
23677;BME280;31493;49.058;12.190;2023-05-22T00:58:29;95761.66;;;15.78;81.26
23677;BME280;31493;49.058;12.190;2023-05-22T01:00:56;95752.16;;;15.77;81.08
23677;BME280;31493;49.058;12.190;2023-05-22T01:03:23;95753.00;;;15.78;81.25
23677;BME280;31493;49.058;12.190;2023-05-22T01:05:51;95768.91;;;15.84;81.01
23677;BME280;31493;49.058;12.190;2023-05-22T01:08:19;95759.72;;;15.80;80.61
23677;BME280;31493;49.058;12.190;2023-05-22T01:10:47;95762.31;;;15.80;80.74
23677;BME280;31493;49.058;12.190;2023-05-22T01:13:27;95756.22;;;15.90;80.32
23677;BME280;31493;49.058;12.190;2023-05-22T01:16:00;95763.38;;;15.88;80.26
23677;BME280;31493;49.058;12.190;2023-05-22T01:18:36;95761.19;;;15.83;80.46
23677;BME280;31493;49.058;12.190;2023-05-22T01:21:07;95761.91;;;15.85;80.31
23677;BME280;31493;49.058;12.190;2023-05-22T01:24:01;95761.34;;;15.81;80.35
23677;BME280;31493;49.058;12.190;2023-05-22T01:27:07;95761.50;;;15.80;80.32
23677;BME280;31493;49.058;12.190;2023-05-22T01:29:47;95759.56;;;15.82;80.27
23677;BME280;31493;49.058;12.190;2023-05-22T01:32:24;95765.47;;;15.84;80.11
23677;BME280;31493;49.058;12.190;2023-05-22T01:34:53;95763.78;;;15.93;79.57
23677;BME280;31493;49.058;12.190;2023-05-22T01:37:22;95757.44;;;15.95;79.31
23677;BME280;31493;49.058;12.190;2023-05-22T01:39:50;95760.19;;;15.94;79.25
23677;BME280;31493;49.058;12.190;2023-05-22T01:42:17;95767.38;;;15.92;79.32
23677;BME280;31493;49.058;12.190;2023-05-22T01:44:45;95767.94;;;15.85;79.27
23677;BME280;31493;49.058;12.190;2023-05-22T01:47:13;95763.00;;;15.82;79.72
23677;BME280;31493;49.058;12.190;2023-05-22T01:49:42;95763.69;;;15.84;79.63
23677;BME280;31493;49.058;12.190;2023-05-22T01:52:19;95756.28;;;15.80;79.96
23677;BME280;31493;49.058;12.190;2023-05-22T01:54:55;95760.84;;;15.68;80.42
23677;BME280;31493;49.058;12.190;2023-05-22T01:57:27;95748.38;;;15.62;80.90
23677;BME280;31493;49.058;12.190;2023-05-22T02:00:02;95752.19;;;15.58;81.35
23677;BME280;31493;49.058;12.190;2023-05-22T02:02:35;95754.16;;;15.46;81.79
23677;BME280;31493;49.058;12.190;2023-05-22T02:05:08;95755.13;;;15.45;82.30
23677;BME280;31493;49.058;12.190;2023-05-22T02:07:37;95750.88;;;15.44;82.47
23677;BME280;31493;49.058;12.190;2023-05-22T02:10:07;95754.34;;;15.35;82.86
23677;BME280;31493;49.058;12.190;2023-05-22T02:12:35;95748.44;;;15.33;83.02
23677;BME280;31493;49.058;12.190;2023-05-22T02:15:03;95745.69;;;15.35;82.88
23677;BME280;31493;49.058;12.190;2023-05-22T02:17:35;95747.75;;;15.21;83.92
23677;BME280;31493;49.058;12.190;2023-05-22T02:20:09;95752.44;;;15.18;84.62
23677;BME280;31493;49.058;12.190;2023-05-22T02:22:40;95753.97;;;14.91;85.93
23677;BME280;31493;49.058;12.190;2023-05-22T02:25:08;95744.53;;;14.81;87.25
23677;BME280;31493;49.058;12.190;2023-05-22T02:27:39;95753.44;;;14.59;89.25
23677;BME280;31493;49.058;12.190;2023-05-22T02:30:08;95747.41;;;14.58;89.55
23677;BME280;31493;49.058;12.190;2023-05-22T02:32:35;95744.00;;;14.67;89.24
23677;BME280;31493;49.058;12.190;2023-05-22T02:35:02;95738.38;;;14.62;89.32
23677;BME280;31493;49.058;12.190;2023-05-22T02:37:31;95737.09;;;14.47;90.37
23677;BME280;31493;49.058;12.190;2023-05-22T02:39:58;95732.59;;;14.49;90.76
23677;BME280;31493;49.058;12.190;2023-05-22T02:42:25;95739.44;;;14.50;90.90
23677;BME280;31493;49.058;12.190;2023-05-22T02:44:52;95741.34;;;14.48;91.17
23677;BME280;31493;49.058;12.190;2023-05-22T02:47:19;95744.22;;;14.45;91.66
23677;BME280;31493;49.058;12.190;2023-05-22T02:49:46;95732.97;;;14.44;91.57
23677;BME280;31493;49.058;12.190;2023-05-22T02:52:13;95737.91;;;14.38;92.17
23677;BME280;31493;49.058;12.190;2023-05-22T02:54:42;95731.31;;;14.34;92.81
23677;BME280;31493;49.058;12.190;2023-05-22T02:57:09;95746.09;;;14.33;92.99
23677;BME280;31493;49.058;12.190;2023-05-22T02:59:36;95740.47;;;14.28;93.32
23677;BME280;31493;49.058;12.190;2023-05-22T03:02:04;95746.66;;;14.27;93.56
23677;BME280;31493;49.058;12.190;2023-05-22T03:04:31;95748.28;;;14.28;93.61
23677;BME280;31493;49.058;12.190;2023-05-22T03:06:58;95742.66;;;14.23;94.17
23677;BME280;31493;49.058;12.190;2023-05-22T03:09:26;95746.50;;;14.19;94.50
23677;BME280;31493;49.058;12.190;2023-05-22T03:11:55;95745.41;;;14.21;94.66
23677;BME280;31493;49.058;12.190;2023-05-22T03:14:22;95743.91;;;14.19;95.07
23677;BME280;31493;49.058;12.190;2023-05-22T03:16:49;95739.75;;;14.07;95.43
23677;BME280;31493;49.058;12.190;2023-05-22T03:19:16;95742.22;;;14.08;95.63
23677;BME280;31493;49.058;12.190;2023-05-22T03:21:43;95735.81;;;14.12;95.28
23677;BME280;31493;49.058;12.190;2023-05-22T03:24:10;95743.19;;;14.07;95.58
23677;BME280;31493;49.058;12.190;2023-05-22T03:26:37;95753.59;;;14.07;95.57
23677;BME280;31493;49.058;12.190;2023-05-22T03:29:06;95752.19;;;13.93;96.73
23677;BME280;31493;49.058;12.190;2023-05-22T03:31:33;95751.34;;;13.93;96.81
23677;BME280;31493;49.058;12.190;2023-05-22T03:34:00;95755.03;;;13.90;96.81
23677;BME280;31493;49.058;12.190;2023-05-22T03:36:28;95751.75;;;13.88;97.28
23677;BME280;31493;49.058;12.190;2023-05-22T03:38:58;95753.41;;;13.99;96.71
23677;BME280;31493;49.058;12.190;2023-05-22T03:41:25;95752.88;;;13.95;96.62
23677;BME280;31493;49.058;12.190;2023-05-22T03:43:52;95750.97;;;13.97;96.91
23677;BME280;31493;49.058;12.190;2023-05-22T03:46:21;95753.13;;;13.92;97.54
23677;BME280;31493;49.058;12.190;2023-05-22T03:48:48;95742.91;;;14.01;96.81
23677;BME280;31493;49.058;12.190;2023-05-22T03:51:15;95751.78;;;13.98;97.27
23677;BME280;31493;49.058;12.190;2023-05-22T03:53:42;95753.16;;;14.02;96.92
23677;BME280;31493;49.058;12.190;2023-05-22T03:56:09;95759.63;;;14.08;96.57
23677;BME280;31493;49.058;12.190;2023-05-22T03:58:36;95766.75;;;14.06;96.66
23677;BME280;31493;49.058;12.190;2023-05-22T04:01:03;95753.84;;;14.04;96.72
23677;BME280;31493;49.058;12.190;2023-05-22T04:03:32;95760.31;;;14.10;96.53
23677;BME280;31493;49.058;12.190;2023-05-22T04:05:59;95762.09;;;14.09;96.70
23677;BME280;31493;49.058;12.190;2023-05-22T04:08:26;95748.25;;;14.09;96.74
23677;BME280;31493;49.058;12.190;2023-05-22T04:10:53;95760.16;;;14.11;96.71
23677;BME280;31493;49.058;12.190;2023-05-22T04:13:20;95755.81;;;14.12;96.70
23677;BME280;31493;49.058;12.190;2023-05-22T04:15:47;95754.28;;;14.09;96.75
23677;BME280;31493;49.058;12.190;2023-05-22T04:18:14;95754.81;;;14.03;97.06
23677;BME280;31493;49.058;12.190;2023-05-22T04:20:43;95757.41;;;14.03;97.30
23677;BME280;31493;49.058;12.190;2023-05-22T04:23:10;95747.00;;;14.03;97.59
23677;BME280;31493;49.058;12.190;2023-05-22T04:25:38;95748.00;;;14.12;96.70
23677;BME280;31493;49.058;12.190;2023-05-22T04:28:05;95749.34;;;14.16;96.54
23677;BME280;31493;49.058;12.190;2023-05-22T04:30:33;95745.41;;;14.21;96.46
23677;BME280;31493;49.058;12.190;2023-05-22T04:33:01;95752.13;;;14.24;96.53
23677;BME280;31493;49.058;12.190;2023-05-22T04:35:30;95751.84;;;14.27;96.41
23677;BME280;31493;49.058;12.190;2023-05-22T04:37:59;95753.78;;;14.35;96.37
23677;BME280;31493;49.058;12.190;2023-05-22T04:40:26;95752.41;;;14.40;96.45
23677;BME280;31493;49.058;12.190;2023-05-22T04:42:54;95753.81;;;14.44;96.30
23677;BME280;31493;49.058;12.190;2023-05-22T04:45:24;95755.22;;;14.58;95.80
23677;BME280;31493;49.058;12.190;2023-05-22T04:47:53;95747.81;;;14.63;95.70
23677;BME280;31493;49.058;12.190;2023-05-22T04:50:20;95753.56;;;14.76;94.92
23677;BME280;31493;49.058;12.190;2023-05-22T04:52:48;95756.03;;;14.88;94.78
23677;BME280;31493;49.058;12.190;2023-05-22T04:55:16;95760.97;;;15.00;94.15
23677;BME280;31493;49.058;12.190;2023-05-22T04:57:45;95759.56;;;15.16;94.81
23677;BME280;31493;49.058;12.190;2023-05-22T05:00:13;95761.91;;;15.19;94.52
23677;BME280;31493;49.058;12.190;2023-05-22T05:02:41;95749.03;;;15.08;93.69
23677;BME280;31493;49.058;12.190;2023-05-22T05:05:08;95751.22;;;15.02;93.83
23677;BME280;31493;49.058;12.190;2023-05-22T05:07:36;95764.38;;;15.20;94.09
23677;BME280;31493;49.058;12.190;2023-05-22T05:10:04;95754.09;;;15.19;93.75
23677;BME280;31493;49.058;12.190;2023-05-22T05:12:33;95748.72;;;15.30;94.97
23677;BME280;31493;49.058;12.190;2023-05-22T05:15:00;95749.69;;;15.19;94.33
23677;BME280;31493;49.058;12.190;2023-05-22T05:17:28;95755.84;;;15.38;94.17
23677;BME280;31493;49.058;12.190;2023-05-22T05:19:55;95755.13;;;15.45;93.13
23677;BME280;31493;49.058;12.190;2023-05-22T05:22:22;95754.44;;;15.53;92.69
23677;BME280;31493;49.058;12.190;2023-05-22T05:24:49;95759.97;;;15.77;93.14
23677;BME280;31493;49.058;12.190;2023-05-22T05:27:16;95754.47;;;15.90;91.03
23677;BME280;31493;49.058;12.190;2023-05-22T05:29:44;95756.69;;;15.85;91.38
23677;BME280;31493;49.058;12.190;2023-05-22T05:32:11;95764.22;;;15.88;91.89
23677;BME280;31493;49.058;12.190;2023-05-22T05:34:38;95766.41;;;15.93;92.13
23677;BME280;31493;49.058;12.190;2023-05-22T05:37:06;95752.38;;;16.21;91.17
23677;BME280;31493;49.058;12.190;2023-05-22T05:39:33;95754.59;;;15.89;91.16
23677;BME280;31493;49.058;12.190;2023-05-22T05:42:00;95747.91;;;16.31;91.46
23677;BME280;31493;49.058;12.190;2023-05-22T05:44:27;95752.41;;;16.11;91.40
23677;BME280;31493;49.058;12.190;2023-05-22T05:46:56;95756.19;;;16.27;92.41
23677;BME280;31493;49.058;12.190;2023-05-22T05:49:23;95752.53;;;16.37;90.33
23677;BME280;31493;49.058;12.190;2023-05-22T05:51:50;95752.66;;;16.63;90.26
23677;BME280;31493;49.058;12.190;2023-05-22T05:54:17;95755.63;;;16.69;90.32
23677;BME280;31493;49.058;12.190;2023-05-22T05:56:44;95760.97;;;16.95;90.52
23677;BME280;31493;49.058;12.190;2023-05-22T05:59:11;95753.13;;;16.95;89.36
23677;BME280;31493;49.058;12.190;2023-05-22T06:01:42;95744.53;;;17.02;89.20
23677;BME280;31493;49.058;12.190;2023-05-22T06:04:10;95761.78;;;17.13;87.40
23677;BME280;31493;49.058;12.190;2023-05-22T06:06:37;95751.06;;;17.06;88.15
23677;BME280;31493;49.058;12.190;2023-05-22T06:09:04;95761.97;;;17.37;87.47
23677;BME280;31493;49.058;12.190;2023-05-22T06:11:32;95758.41;;;17.72;85.06
23677;BME280;31493;49.058;12.190;2023-05-22T06:13:59;95768.03;;;17.98;84.64
23677;BME280;31493;49.058;12.190;2023-05-22T06:16:27;95755.91;;;18.39;77.28
23677;BME280;31493;49.058;12.190;2023-05-22T06:18:55;95762.44;;;18.94;74.78
23677;BME280;31493;49.058;12.190;2023-05-22T06:21:24;95759.31;;;18.98;73.07
23677;BME280;31493;49.058;12.190;2023-05-22T06:23:51;95764.56;;;19.06;67.84
23677;BME280;31493;49.058;12.190;2023-05-22T06:26:18;95760.44;;;19.20;66.72
23677;BME280;31493;49.058;12.190;2023-05-22T06:28:46;95767.53;;;19.28;66.40
23677;BME280;31493;49.058;12.190;2023-05-22T06:31:13;95772.75;;;19.44;66.73
23677;BME280;31493;49.058;12.190;2023-05-22T06:33:40;95769.97;;;19.46;64.58
23677;BME280;31493;49.058;12.190;2023-05-22T06:36:07;95759.94;;;19.33;63.84
23677;BME280;31493;49.058;12.190;2023-05-22T06:38:37;95769.13;;;19.53;63.30
23677;BME280;31493;49.058;12.190;2023-05-22T06:41:04;95766.97;;;19.81;64.98
23677;BME280;31493;49.058;12.190;2023-05-22T06:43:32;95755.03;;;19.63;65.08
23677;BME280;31493;49.058;12.190;2023-05-22T06:45:59;95754.53;;;19.67;62.79
23677;BME280;31493;49.058;12.190;2023-05-22T06:48:26;95762.88;;;19.79;62.20
23677;BME280;31493;49.058;12.190;2023-05-22T06:50:53;95754.03;;;19.39;66.36
23677;BME280;31493;49.058;12.190;2023-05-22T06:53:20;95765.50;;;19.79;62.48
23677;BME280;31493;49.058;12.190;2023-05-22T06:55:49;95764.16;;;19.91;61.86
23677;BME280;31493;49.058;12.190;2023-05-22T06:58:16;95757.53;;;20.03;61.40
23677;BME280;31493;49.058;12.190;2023-05-22T07:00:44;95754.94;;;19.95;59.77
23677;BME280;31493;49.058;12.190;2023-05-22T07:03:11;95783.19;;;19.93;61.74
23677;BME280;31493;49.058;12.190;2023-05-22T07:05:38;95778.28;;;19.90;58.99
23677;BME280;31493;49.058;12.190;2023-05-22T07:08:05;95772.66;;;20.01;59.92
23677;BME280;31493;49.058;12.190;2023-05-22T07:10:33;95774.47;;;19.93;59.36
23677;BME280;31493;49.058;12.190;2023-05-22T07:13:01;95775.56;;;20.06;60.56
23677;BME280;31493;49.058;12.190;2023-05-22T07:15:28;95774.22;;;20.19;62.50
23677;BME280;31493;49.058;12.190;2023-05-22T07:17:55;95774.91;;;20.12;59.84
23677;BME280;31493;49.058;12.190;2023-05-22T07:20:22;95776.56;;;20.05;62.93
23677;BME280;31493;49.058;12.190;2023-05-22T07:22:50;95787.91;;;20.06;59.62
23677;BME280;31493;49.058;12.190;2023-05-22T07:25:17;95770.44;;;20.21;59.51
23677;BME280;31493;49.058;12.190;2023-05-22T07:27:44;95772.56;;;20.26;58.66
23677;BME280;31493;49.058;12.190;2023-05-22T07:30:13;95777.56;;;20.52;58.50
23677;BME280;31493;49.058;12.190;2023-05-22T07:32:40;95775.69;;;20.60;59.30
23677;BME280;31493;49.058;12.190;2023-05-22T07:35:08;95781.13;;;20.59;62.15
23677;BME280;31493;49.058;12.190;2023-05-22T07:37:36;95765.53;;;20.57;60.02
23677;BME280;31493;49.058;12.190;2023-05-22T07:40:04;95777.34;;;20.61;61.19
23677;BME280;31493;49.058;12.190;2023-05-22T07:42:32;95774.25;;;20.58;57.88
23677;BME280;31493;49.058;12.190;2023-05-22T07:44:59;95781.00;;;20.52;57.26
23677;BME280;31493;49.058;12.190;2023-05-22T07:47:28;95779.19;;;20.84;57.24
23677;BME280;31493;49.058;12.190;2023-05-22T07:49:55;95768.25;;;20.95;57.57
23677;BME280;31493;49.058;12.190;2023-05-22T07:52:22;95765.63;;;20.95;57.80
23677;BME280;31493;49.058;12.190;2023-05-22T07:54:49;95774.63;;;21.01;57.21
23677;BME280;31493;49.058;12.190;2023-05-22T07:57:16;95773.75;;;21.08;57.54
23677;BME280;31493;49.058;12.190;2023-05-22T07:59:43;95767.88;;;20.98;54.76
23677;BME280;31493;49.058;12.190;2023-05-22T08:02:10;95770.22;;;20.70;55.88
23677;BME280;31493;49.058;12.190;2023-05-22T08:04:40;95773.63;;;20.79;60.08
23677;BME280;31493;49.058;12.190;2023-05-22T08:07:07;95780.00;;;21.07;60.14
23677;BME280;31493;49.058;12.190;2023-05-22T08:09:34;95772.81;;;21.24;57.44
23677;BME280;31493;49.058;12.190;2023-05-22T08:12:01;95777.44;;;20.68;54.82
23677;BME280;31493;49.058;12.190;2023-05-22T08:14:29;95779.19;;;20.84;54.18
23677;BME280;31493;49.058;12.190;2023-05-22T08:16:56;95773.94;;;21.07;54.25
23677;BME280;31493;49.058;12.190;2023-05-22T08:19:24;95761.31;;;21.17;56.76
23677;BME280;31493;49.058;12.190;2023-05-22T08:21:53;95777.72;;;21.04;52.96
23677;BME280;31493;49.058;12.190;2023-05-22T08:24:22;95772.84;;;21.16;53.25
23677;BME280;31493;49.058;12.190;2023-05-22T08:26:53;95781.47;;;21.33;54.62
23677;BME280;31493;49.058;12.190;2023-05-22T08:29:20;95775.78;;;21.44;55.18
23677;BME280;31493;49.058;12.190;2023-05-22T08:31:47;95776.47;;;21.61;54.91
23677;BME280;31493;49.058;12.190;2023-05-22T08:34:14;95772.66;;;21.63;53.91
23677;BME280;31493;49.058;12.190;2023-05-22T08:36:41;95782.28;;;21.71;53.51
23677;BME280;31493;49.058;12.190;2023-05-22T08:39:11;95783.47;;;21.68;57.61
23677;BME280;31493;49.058;12.190;2023-05-22T08:41:39;95783.03;;;21.94;56.87
23677;BME280;31493;49.058;12.190;2023-05-22T08:44:07;95768.81;;;21.66;51.55
23677;BME280;31493;49.058;12.190;2023-05-22T08:46:35;95770.53;;;21.44;52.16
23677;BME280;31493;49.058;12.190;2023-05-22T08:49:06;95771.13;;;21.98;59.54
23677;BME280;31493;49.058;12.190;2023-05-22T08:51:37;95769.09;;;21.56;45.38
23677;BME280;31493;49.058;12.190;2023-05-22T08:54:05;95767.03;;;21.96;49.74
23677;BME280;31493;49.058;12.190;2023-05-22T08:56:34;95776.09;;;22.08;49.02
23677;BME280;31493;49.058;12.190;2023-05-22T08:59:02;95774.69;;;22.20;48.46
23677;BME280;31493;49.058;12.190;2023-05-22T09:01:30;95773.44;;;22.16;47.85
23677;BME280;31493;49.058;12.190;2023-05-22T09:03:59;95762.13;;;22.37;45.96
23677;BME280;31493;49.058;12.190;2023-05-22T09:06:26;95765.38;;;22.54;44.69
23677;BME280;31493;49.058;12.190;2023-05-22T09:08:55;95759.75;;;22.42;43.38
23677;BME280;31493;49.058;12.190;2023-05-22T09:11:22;95761.72;;;22.40;46.67
23677;BME280;31493;49.058;12.190;2023-05-22T09:13:51;95758.81;;;22.50;41.91
23677;BME280;31493;49.058;12.190;2023-05-22T09:16:18;95754.63;;;22.92;45.95
23677;BME280;31493;49.058;12.190;2023-05-22T09:18:45;95763.72;;;22.89;41.61
23677;BME280;31493;49.058;12.190;2023-05-22T09:21:12;95763.63;;;22.97;44.77
23677;BME280;31493;49.058;12.190;2023-05-22T09:23:39;95764.25;;;23.21;47.55
23677;BME280;31493;49.058;12.190;2023-05-22T09:26:06;95770.81;;;22.89;40.50
23677;BME280;31493;49.058;12.190;2023-05-22T09:28:34;95762.06;;;23.03;41.89
23677;BME280;31493;49.058;12.190;2023-05-22T09:31:03;95753.00;;;22.76;41.03
23677;BME280;31493;49.058;12.190;2023-05-22T09:33:30;95765.06;;;23.21;41.75
23677;BME280;31493;49.058;12.190;2023-05-22T09:35:58;95761.34;;;22.94;37.71
23677;BME280;31493;49.058;12.190;2023-05-22T09:38:28;95760.97;;;23.19;39.30
23677;BME280;31493;49.058;12.190;2023-05-22T09:40:56;95767.09;;;23.47;39.23
23677;BME280;31493;49.058;12.190;2023-05-22T09:43:23;95768.63;;;23.35;43.88
23677;BME280;31493;49.058;12.190;2023-05-22T09:45:55;95758.63;;;23.52;38.93
23677;BME280;31493;49.058;12.190;2023-05-22T09:48:24;95768.69;;;23.98;38.56
23677;BME280;31493;49.058;12.190;2023-05-22T09:50:52;95757.72;;;23.17;35.98
23677;BME280;31493;49.058;12.190;2023-05-22T09:53:25;95760.72;;;23.14;36.17
23677;BME280;31493;49.058;12.190;2023-05-22T09:55:54;95765.38;;;23.33;36.60
23677;BME280;31493;49.058;12.190;2023-05-22T09:58:21;95764.78;;;23.38;37.48
23677;BME280;31493;49.058;12.190;2023-05-22T10:00:49;95759.69;;;23.57;38.96
23677;BME280;31493;49.058;12.190;2023-05-22T10:03:21;95766.09;;;23.70;33.96
23677;BME280;31493;49.058;12.190;2023-05-22T10:05:52;95765.41;;;23.89;36.58
23677;BME280;31493;49.058;12.190;2023-05-22T10:08:23;95765.16;;;24.19;38.02
23677;BME280;31493;49.058;12.190;2023-05-22T10:10:51;95742.47;;;23.68;34.57
23677;BME280;31493;49.058;12.190;2023-05-22T10:13:19;95753.59;;;24.26;38.29
23677;BME280;31493;49.058;12.190;2023-05-22T10:15:46;95750.75;;;23.93;35.47
23677;BME280;31493;49.058;12.190;2023-05-22T10:18:15;95742.13;;;24.60;36.56
23677;BME280;31493;49.058;12.190;2023-05-22T10:20:43;95741.06;;;24.00;35.03
23677;BME280;31493;49.058;12.190;2023-05-22T10:23:13;95751.25;;;24.03;34.96
23677;BME280;31493;49.058;12.190;2023-05-22T10:25:41;95741.41;;;23.91;35.23
23677;BME280;31493;49.058;12.190;2023-05-22T10:28:09;95739.16;;;24.29;34.45
23677;BME280;31493;49.058;12.190;2023-05-22T10:30:42;95734.66;;;24.29;36.75
23677;BME280;31493;49.058;12.190;2023-05-22T10:33:16;95726.72;;;24.84;36.71
23677;BME280;31493;49.058;12.190;2023-05-22T10:35:46;95725.16;;;25.76;35.85
23677;BME280;31493;49.058;12.190;2023-05-22T10:38:34;95731.88;;;25.45;39.10
23677;BME280;31493;49.058;12.190;2023-05-22T10:41:06;95724.75;;;25.45;38.71
23677;BME280;31493;49.058;12.190;2023-05-22T10:43:37;95732.25;;;24.96;36.69
23677;BME280;31493;49.058;12.190;2023-05-22T10:46:05;95726.38;;;25.46;38.46
23677;BME280;31493;49.058;12.190;2023-05-22T10:48:37;95720.06;;;25.41;38.10
23677;BME280;31493;49.058;12.190;2023-05-22T10:51:05;95726.00;;;25.43;36.61
23677;BME280;31493;49.058;12.190;2023-05-22T10:53:34;95725.56;;;25.26;38.10
23677;BME280;31493;49.058;12.190;2023-05-22T10:56:09;95734.94;;;25.62;37.19
23677;BME280;31493;49.058;12.190;2023-05-22T10:58:36;95712.31;;;25.46;37.98
23677;BME280;31493;49.058;12.190;2023-05-22T11:01:11;95712.50;;;25.84;41.16
23677;BME280;31493;49.058;12.190;2023-05-22T11:03:52;95718.81;;;25.96;40.32
23677;BME280;31493;49.058;12.190;2023-05-22T11:06:35;95713.97;;;25.54;38.96
23677;BME280;31493;49.058;12.190;2023-05-22T11:09:26;95716.16;;;25.83;42.92
23677;BME280;31493;49.058;12.190;2023-05-22T11:12:12;95706.00;;;25.14;36.54
23677;BME280;31493;49.058;12.190;2023-05-22T11:14:41;95716.16;;;25.96;37.88
23677;BME280;31493;49.058;12.190;2023-05-22T11:17:10;95710.88;;;25.70;36.75
23677;BME280;31493;49.058;12.190;2023-05-22T11:19:39;95722.72;;;25.74;35.65
23677;BME280;31493;49.058;12.190;2023-05-22T11:22:06;95717.19;;;25.62;35.90
23677;BME280;31493;49.058;12.190;2023-05-22T11:24:36;95714.13;;;25.85;36.94
23677;BME280;31493;49.058;12.190;2023-05-22T11:27:04;95715.38;;;25.76;35.18
23677;BME280;31493;49.058;12.190;2023-05-22T11:29:32;95704.50;;;26.04;35.03
23677;BME280;31493;49.058;12.190;2023-05-22T11:32:00;95716.78;;;25.92;36.10
23677;BME280;31493;49.058;12.190;2023-05-22T11:34:27;95710.66;;;25.91;38.41
23677;BME280;31493;49.058;12.190;2023-05-22T11:36:58;95715.34;;;25.69;33.95
23677;BME280;31493;49.058;12.190;2023-05-22T11:39:25;95692.94;;;25.85;36.08
23677;BME280;31493;49.058;12.190;2023-05-22T11:41:54;95703.34;;;25.80;34.52
23677;BME280;31493;49.058;12.190;2023-05-22T11:44:21;95707.03;;;25.46;31.83
23677;BME280;31493;49.058;12.190;2023-05-22T11:46:48;95702.34;;;25.35;31.29
23677;BME280;31493;49.058;12.190;2023-05-22T11:49:15;95697.59;;;25.90;33.82
23677;BME280;31493;49.058;12.190;2023-05-22T11:51:42;95700.44;;;25.95;33.51
23677;BME280;31493;49.058;12.190;2023-05-22T11:54:09;95703.72;;;25.84;31.94
23677;BME280;31493;49.058;12.190;2023-05-22T11:56:36;95710.50;;;25.60;30.68
23677;BME280;31493;49.058;12.190;2023-05-22T11:59:05;95695.81;;;25.37;30.60
23677;BME280;31493;49.058;12.190;2023-05-22T12:01:32;95697.66;;;25.30;30.96
23677;BME280;31493;49.058;12.190;2023-05-22T12:04:00;95694.06;;;26.09;31.03
23677;BME280;31493;49.058;12.190;2023-05-22T12:06:27;95699.47;;;25.76;33.11
23677;BME280;31493;49.058;12.190;2023-05-22T12:08:58;95708.03;;;25.85;30.92
23677;BME280;31493;49.058;12.190;2023-05-22T12:11:25;95691.13;;;25.33;27.85
23677;BME280;31493;49.058;12.190;2023-05-22T12:13:59;95699.69;;;25.35;28.84
23677;BME280;31493;49.058;12.190;2023-05-22T12:16:33;95699.41;;;25.96;34.58
23677;BME280;31493;49.058;12.190;2023-05-22T12:19:03;95689.44;;;25.91;31.71
23677;BME280;31493;49.058;12.190;2023-05-22T12:21:30;95682.31;;;25.85;35.52
23677;BME280;31493;49.058;12.190;2023-05-22T12:24:01;95683.66;;;26.08;29.63
23677;BME280;31493;49.058;12.190;2023-05-22T12:26:29;95688.13;;;26.14;30.47
23677;BME280;31493;49.058;12.190;2023-05-22T12:28:57;95678.81;;;25.98;32.85
23677;BME280;31493;49.058;12.190;2023-05-22T12:31:24;95685.13;;;26.04;33.02
23677;BME280;31493;49.058;12.190;2023-05-22T12:33:56;95675.84;;;25.55;35.03
23677;BME280;31493;49.058;12.190;2023-05-22T12:36:32;95676.41;;;25.70;37.27
23677;BME280;31493;49.058;12.190;2023-05-22T12:38:59;95671.50;;;25.87;38.83
23677;BME280;31493;49.058;12.190;2023-05-22T12:41:26;95670.59;;;26.13;35.82
23677;BME280;31493;49.058;12.190;2023-05-22T12:43:53;95672.25;;;26.01;35.38
23677;BME280;31493;49.058;12.190;2023-05-22T12:46:20;95680.84;;;25.96;36.76
23677;BME280;31493;49.058;12.190;2023-05-22T12:48:47;95666.75;;;26.02;33.28
23677;BME280;31493;49.058;12.190;2023-05-22T12:51:16;95673.06;;;26.01;32.42
23677;BME280;31493;49.058;12.190;2023-05-22T12:53:43;95679.75;;;26.17;32.60
23677;BME280;31493;49.058;12.190;2023-05-22T12:56:10;95674.19;;;26.25;33.17
23677;BME280;31493;49.058;12.190;2023-05-22T12:58:37;95676.28;;;26.16;32.25